createdAt,value
2023-02-17T00:02:08.660Z,13.30
2023-02-17T00:04:36.101Z,13.50
2023-02-17T00:07:03.546Z,13.20
2023-02-17T00:09:31.024Z,13.17
2023-02-17T00:11:58.440Z,13.67
2023-02-17T00:14:26.165Z,13.33
2023-02-17T00:16:53.624Z,13.97
2023-02-17T00:19:25.307Z,13.80
2023-02-17T00:22:02.604Z,13.53
2023-02-17T00:24:32.210Z,12.93
2023-02-17T00:27:00.014Z,14.03
2023-02-17T00:29:27.510Z,13.10
2023-02-17T00:31:55.369Z,13.67
2023-02-17T00:34:23.957Z,13.13
2023-02-17T00:36:52.650Z,13.73
2023-02-17T00:39:20.063Z,14.23
2023-02-17T00:41:49.759Z,13.57
2023-02-17T00:44:21.584Z,13.33
2023-02-17T00:46:52.160Z,13.23
2023-02-17T00:49:22.380Z,12.70
2023-02-17T00:51:50.591Z,14.13
2023-02-17T00:54:18.489Z,13.10
2023-02-17T00:56:45.942Z,13.00
2023-02-17T00:59:13.486Z,12.27
2023-02-17T01:01:41.086Z,14.03
2023-02-17T01:04:10.414Z,13.80
2023-02-17T01:06:38.740Z,13.70
2023-02-17T01:09:08.621Z,13.13
2023-02-17T01:11:37.088Z,13.53
2023-02-17T01:14:09.068Z,13.47
2023-02-17T01:16:39.028Z,13.10
2023-02-17T01:19:07.801Z,12.20
2023-02-17T01:21:36.190Z,13.60
2023-02-17T01:24:05.116Z,12.97
2023-02-17T01:26:33.658Z,13.37
2023-02-17T01:29:02.245Z,13.47
2023-02-17T01:31:30.042Z,13.27
2023-02-17T01:33:58.533Z,13.07
2023-02-17T01:36:26.294Z,13.30
2023-02-17T01:38:53.767Z,13.30
2023-02-17T01:41:22.675Z,13.47
2023-02-17T01:44:11.081Z,12.73
2023-02-17T01:46:39.319Z,13.97
2023-02-17T01:49:14.604Z,13.47
2023-02-17T01:51:42.921Z,13.33
2023-02-17T01:54:13.882Z,13.40
2023-02-17T01:56:44.037Z,13.17
2023-02-17T01:59:12.883Z,12.97
2023-02-17T02:01:41.082Z,13.47
2023-02-17T02:04:08.754Z,13.73
2023-02-17T02:06:37.319Z,13.17
2023-02-17T02:09:06.581Z,12.73
2023-02-17T02:11:34.768Z,13.53
2023-02-17T02:14:02.875Z,12.97
2023-02-17T02:16:34.987Z,13.80
2023-02-17T02:19:16.030Z,12.90
2023-02-17T02:22:03.746Z,14.37
2023-02-17T02:24:51.455Z,12.63
2023-02-17T02:27:55.289Z,13.70
2023-02-17T02:30:43.043Z,12.90
2023-02-17T02:33:17.695Z,13.90
2023-02-17T02:35:52.349Z,13.50
2023-02-17T02:38:32.168Z,12.43
2023-02-17T02:41:03.578Z,12.83
2023-02-17T02:43:31.785Z,12.30
2023-02-17T02:45:59.436Z,12.27
2023-02-17T02:48:27.447Z,13.20
2023-02-17T02:51:02.292Z,13.20
2023-02-17T02:53:56.470Z,13.37
2023-02-17T02:56:53.573Z,12.30
2023-02-17T02:59:33.445Z,13.30
2023-02-17T03:02:21.428Z,12.77
2023-02-17T03:05:11.638Z,13.20
2023-02-17T03:07:45.838Z,12.40
2023-02-17T03:10:14.677Z,13.77
2023-02-17T03:12:42.372Z,13.40
2023-02-17T03:15:15.407Z,12.33
2023-02-17T03:17:42.963Z,12.93
2023-02-17T03:20:11.103Z,12.50
2023-02-17T03:22:40.832Z,13.20
2023-02-17T03:25:09.187Z,14.37
2023-02-17T03:27:36.930Z,13.97
2023-02-17T03:30:04.929Z,13.00
2023-02-17T03:32:32.495Z,12.97
2023-02-17T03:34:59.978Z,12.50
2023-02-17T03:37:27.430Z,13.00
2023-02-17T03:39:54.896Z,13.27
2023-02-17T03:42:22.290Z,12.47
2023-02-17T03:44:49.731Z,12.13
2023-02-17T03:47:17.149Z,12.20
2023-02-17T03:49:44.628Z,13.00
2023-02-17T03:52:12.091Z,12.30
2023-02-17T03:54:39.541Z,13.63
2023-02-17T03:57:06.954Z,12.77
2023-02-17T03:59:34.478Z,12.03
2023-02-17T04:02:01.950Z,12.73
2023-02-17T04:04:29.397Z,12.57
2023-02-17T04:06:56.864Z,12.13
2023-02-17T04:09:24.337Z,12.33
2023-02-17T04:11:51.746Z,11.80
2023-02-17T04:14:19.406Z,12.20
2023-02-17T04:16:46.834Z,12.17
2023-02-17T04:19:14.377Z,12.13
2023-02-17T04:21:41.831Z,12.30
2023-02-17T04:24:09.397Z,11.83
2023-02-17T04:26:36.846Z,11.07
2023-02-17T04:29:04.951Z,11.37
2023-02-17T04:31:32.582Z,11.67
2023-02-17T04:34:00.280Z,11.30
2023-02-17T04:36:27.715Z,11.40
2023-02-17T04:38:55.191Z,12.33
2023-02-17T04:41:22.673Z,11.33
2023-02-17T04:43:50.228Z,12.33
2023-02-17T04:46:17.687Z,11.77
2023-02-17T04:48:45.182Z,10.97
2023-02-17T04:51:12.643Z,12.07
2023-02-17T04:53:40.098Z,12.50
2023-02-17T04:56:08.058Z,12.07
2023-02-17T04:58:36.435Z,12.00
2023-02-17T05:01:03.936Z,12.17
2023-02-17T05:03:31.449Z,12.07
2023-02-17T05:05:59.283Z,12.53
2023-02-17T05:08:26.768Z,11.73
2023-02-17T05:10:54.361Z,11.97
2023-02-17T05:13:21.937Z,11.87
2023-02-17T05:15:49.380Z,12.07
2023-02-17T05:18:16.851Z,12.03
2023-02-17T05:20:44.302Z,12.50
2023-02-17T05:23:11.809Z,12.27
2023-02-17T05:25:41.050Z,11.23
2023-02-17T05:28:08.582Z,12.13
2023-02-17T05:30:36.031Z,10.83
2023-02-17T05:33:03.557Z,11.17
2023-02-17T05:35:31.041Z,11.63
2023-02-17T05:37:58.492Z,11.33
2023-02-17T05:40:25.929Z,11.77
2023-02-17T05:42:53.405Z,10.97
2023-02-17T05:45:20.796Z,11.17
2023-02-17T05:47:48.402Z,11.90
2023-02-17T05:50:15.809Z,11.10
2023-02-17T05:52:43.345Z,11.70
2023-02-17T05:55:10.896Z,11.63
2023-02-17T05:57:38.364Z,11.30
2023-02-17T06:00:06.317Z,11.47
2023-02-17T06:02:39.494Z,11.37
2023-02-17T06:05:07.386Z,11.27
2023-02-17T06:07:35.324Z,10.77
2023-02-17T06:10:02.873Z,11.33
2023-02-17T06:12:30.294Z,11.07
2023-02-17T06:14:57.792Z,11.27
2023-02-17T06:17:25.253Z,11.50
2023-02-17T06:19:52.768Z,11.77
2023-02-17T06:22:20.198Z,11.93
2023-02-17T06:24:47.735Z,11.60
2023-02-17T06:27:15.162Z,11.53
2023-02-17T06:29:42.736Z,11.63
2023-02-17T06:32:10.266Z,11.30
2023-02-17T06:34:37.930Z,10.93
2023-02-17T06:37:05.396Z,10.73
2023-02-17T06:39:32.963Z,12.00
2023-02-17T06:42:00.386Z,12.40
2023-02-17T06:44:27.984Z,10.93
2023-02-17T06:46:55.468Z,10.67
2023-02-17T06:49:23.012Z,10.60
2023-02-17T06:51:50.476Z,10.80
2023-02-17T06:54:18.201Z,10.67
2023-02-17T06:56:45.824Z,11.17
2023-02-17T06:59:13.654Z,11.10
2023-02-17T07:01:41.108Z,11.23
2023-02-17T07:04:08.684Z,10.87
2023-02-17T07:06:36.227Z,10.10
2023-02-17T07:09:03.817Z,10.80
2023-02-17T07:11:32.990Z,10.57
2023-02-17T07:14:00.749Z,10.30
2023-02-17T07:16:28.198Z,10.00
2023-02-17T07:18:55.782Z,10.57
2023-02-17T07:21:23.324Z,10.93
2023-02-17T07:23:50.812Z,10.03
2023-02-17T07:26:18.319Z,10.13
2023-02-17T07:28:46.049Z,9.80
2023-02-17T07:31:14.801Z,10.33
2023-02-17T07:33:42.962Z,10.03
2023-02-17T07:36:11.526Z,9.77
2023-02-17T07:38:39.746Z,9.77
2023-02-17T07:41:12.195Z,9.63
2023-02-17T07:43:39.688Z,9.70
2023-02-17T07:46:08.185Z,10.17
2023-02-17T07:48:36.130Z,10.50
2023-02-17T07:51:07.460Z,9.43
2023-02-17T07:53:35.228Z,9.53
2023-02-17T07:56:07.149Z,10.00
2023-02-17T07:58:35.300Z,9.57
2023-02-17T08:01:10.031Z,9.20
2023-02-17T08:03:37.906Z,9.47
2023-02-17T08:06:05.996Z,9.43
2023-02-17T08:08:52.117Z,10.37
2023-02-17T08:11:38.165Z,9.60
2023-02-17T08:14:05.601Z,8.73
2023-02-17T08:16:49.190Z,9.37
2023-02-17T08:19:16.976Z,9.70
2023-02-17T08:21:44.441Z,9.10
2023-02-17T08:24:12.436Z,9.83
2023-02-17T08:26:40.409Z,9.23
2023-02-17T08:29:07.852Z,9.53
2023-02-17T08:31:36.413Z,10.67
2023-02-17T08:34:05.654Z,9.93
2023-02-17T08:36:33.370Z,9.17
2023-02-17T08:39:01.575Z,9.30
2023-02-17T08:41:33.298Z,8.87
2023-02-17T08:44:02.457Z,9.27
2023-02-17T08:46:30.784Z,9.37
2023-02-17T08:48:58.378Z,9.17
2023-02-17T08:51:26.308Z,9.33
2023-02-17T08:53:55.302Z,9.63
2023-02-17T08:56:23.507Z,9.13
2023-02-17T08:58:51.214Z,8.90
2023-02-17T09:01:19.203Z,8.77
2023-02-17T09:03:47.261Z,8.53
2023-02-17T09:06:15.867Z,9.63
2023-02-17T09:08:43.870Z,8.77
2023-02-17T09:11:11.581Z,9.07
2023-02-17T09:13:39.207Z,9.37
2023-02-17T09:16:07.235Z,9.03
2023-02-17T09:18:34.878Z,9.23
2023-02-17T09:21:12.773Z,9.03
2023-02-17T09:23:40.798Z,9.17
2023-02-17T09:26:10.152Z,9.43
2023-02-17T09:28:38.280Z,10.10
2023-02-17T09:31:25.683Z,9.20
2023-02-17T09:33:53.604Z,8.93
2023-02-17T09:36:22.434Z,8.73
2023-02-17T09:38:50.037Z,8.83
2023-02-17T09:41:23.102Z,8.27
2023-02-17T09:43:51.284Z,8.20
2023-02-17T09:46:32.811Z,8.40
2023-02-17T09:49:03.548Z,8.37
2023-02-17T09:51:33.704Z,8.80
2023-02-17T09:54:07.584Z,8.93
2023-02-17T09:56:37.806Z,8.47
2023-02-17T09:59:12.645Z,9.83
2023-02-17T10:01:41.289Z,8.40
2023-02-17T10:04:31.861Z,8.67
2023-02-17T10:07:06.628Z,8.20
2023-02-17T10:09:36.709Z,8.27
2023-02-17T10:12:06.963Z,8.63
2023-02-17T10:14:46.165Z,8.73
2023-02-17T10:17:32.942Z,8.67
2023-02-17T10:20:08.850Z,9.07
2023-02-17T10:22:36.472Z,8.13
2023-02-17T10:25:04.315Z,8.47
2023-02-17T10:27:47.218Z,8.93
2023-02-17T10:30:50.474Z,8.40
2023-02-17T10:33:21.963Z,8.87
2023-02-17T10:35:51.987Z,9.00
2023-02-17T10:38:38.369Z,7.97
2023-02-17T10:41:06.698Z,8.70
2023-02-17T10:43:34.441Z,8.70
2023-02-17T10:46:03.785Z,8.50
2023-02-17T10:48:36.970Z,9.27
2023-02-17T10:51:04.642Z,8.70
2023-02-17T10:53:39.767Z,8.40
2023-02-17T10:56:14.666Z,8.67
2023-02-17T10:59:21.654Z,8.17
2023-02-17T11:01:52.147Z,8.17
2023-02-17T11:04:19.681Z,9.03
2023-02-17T11:06:51.196Z,8.80
2023-02-17T11:09:32.071Z,8.00
2023-02-17T11:12:04.724Z,8.87
2023-02-17T11:14:34.123Z,8.13
2023-02-17T11:17:03.061Z,8.50
2023-02-17T11:19:34.708Z,9.30
2023-02-17T11:22:03.212Z,8.33
2023-02-17T11:24:31.910Z,8.23
2023-02-17T11:27:04.377Z,7.80
2023-02-17T11:29:33.239Z,8.10
2023-02-17T11:32:04.877Z,8.77
2023-02-17T11:34:34.882Z,8.43
2023-02-17T11:37:17.869Z,8.20
2023-02-17T11:39:49.792Z,8.53
2023-02-17T11:42:30.693Z,9.13
2023-02-17T11:44:59.316Z,8.03
2023-02-17T11:47:45.492Z,8.30
2023-02-17T11:50:51.435Z,9.20
2023-02-17T11:53:44.949Z,8.70
2023-02-17T11:56:17.833Z,8.30
2023-02-17T11:58:57.167Z,7.87
2023-02-17T12:01:47.852Z,7.60
2023-02-17T12:04:44.673Z,8.63
2023-02-17T12:07:41.322Z,7.93
2023-02-17T12:10:20.528Z,8.63
2023-02-17T12:13:10.829Z,8.60
2023-02-17T12:15:47.535Z,8.73
2023-02-17T12:18:30.469Z,8.30
2023-02-17T12:21:16.797Z,8.87
2023-02-17T12:23:59.037Z,7.57
2023-02-17T12:26:37.239Z,7.23
2023-02-17T12:29:23.614Z,7.73
2023-02-17T12:32:24.718Z,7.90
2023-02-17T12:34:59.016Z,7.50
2023-02-17T12:37:32.045Z,7.77
2023-02-17T12:40:08.678Z,7.57
2023-02-17T12:42:39.102Z,7.43
2023-02-17T12:45:08.130Z,6.90
2023-02-17T12:47:43.311Z,6.80
2023-02-17T12:50:22.124Z,6.67
2023-02-17T12:52:52.452Z,7.50
2023-02-17T12:55:25.811Z,6.67
2023-02-17T12:58:00.788Z,7.97
2023-02-17T13:00:33.745Z,6.67
2023-02-17T13:03:04.595Z,5.83
2023-02-17T13:05:36.315Z,6.53
2023-02-17T13:08:33.887Z,6.10
2023-02-17T13:11:21.732Z,6.33
2023-02-17T13:13:49.264Z,6.97
2023-02-17T13:16:16.766Z,5.97
2023-02-17T13:18:45.698Z,6.23
2023-02-17T13:21:31.157Z,6.73
2023-02-17T13:24:02.863Z,6.53
2023-02-17T13:26:31.796Z,6.03
2023-02-17T13:29:31.503Z,5.90
2023-02-17T13:32:01.025Z,6.93
2023-02-17T13:34:36.675Z,6.70
2023-02-17T13:37:17.433Z,6.70
2023-02-17T13:39:45.294Z,6.27
2023-02-17T13:42:39.203Z,6.50
2023-02-17T13:45:33.497Z,5.87
2023-02-17T13:48:12.462Z,4.80
2023-02-17T13:50:44.869Z,4.87
2023-02-17T13:53:26.302Z,4.40
2023-02-17T13:55:55.137Z,5.17
2023-02-17T13:58:28.394Z,4.40
2023-02-17T14:00:56.512Z,4.23
2023-02-17T14:03:29.514Z,3.97
2023-02-17T14:06:01.030Z,4.00
2023-02-17T14:08:42.813Z,4.07
2023-02-17T14:11:14.464Z,4.17
2023-02-17T14:13:46.665Z,3.23
2023-02-17T14:16:44.375Z,3.03
2023-02-17T14:19:13.333Z,3.30
2023-02-17T14:21:42.705Z,3.20
2023-02-17T14:24:25.361Z,3.10
2023-02-17T14:26:56.454Z,3.07
2023-02-17T14:29:24.252Z,3.23
2023-02-17T14:31:53.028Z,3.10
2023-02-17T14:34:30.653Z,3.23
2023-02-17T14:37:17.175Z,3.30
2023-02-17T14:39:45.126Z,3.43
2023-02-17T14:42:12.597Z,3.07
2023-02-17T14:44:40.780Z,3.43
2023-02-17T14:47:08.201Z,3.40
2023-02-17T14:49:35.858Z,3.13
2023-02-17T14:52:16.981Z,3.40
2023-02-17T14:54:44.893Z,2.97
2023-02-17T14:57:14.130Z,3.17
2023-02-17T14:59:42.314Z,3.87
2023-02-17T15:02:17.046Z,3.33
2023-02-17T15:04:44.678Z,3.60
2023-02-17T15:07:16.428Z,3.77
2023-02-17T15:09:47.256Z,3.87
2023-02-17T15:12:16.791Z,3.40
2023-02-17T15:14:44.526Z,3.53
2023-02-17T15:17:12.035Z,4.10
2023-02-17T15:19:39.498Z,4.00
2023-02-17T15:22:07.102Z,3.87
2023-02-17T15:24:35.569Z,3.63
2023-02-17T15:27:03.912Z,3.33
2023-02-17T15:29:31.404Z,3.87
2023-02-17T15:32:01.124Z,3.60
2023-02-17T15:34:36.533Z,3.97
2023-02-17T15:37:04.029Z,3.70
2023-02-17T15:39:31.430Z,3.83
2023-02-17T15:42:01.619Z,3.67
2023-02-17T15:44:33.113Z,3.83
2023-02-17T15:47:01.499Z,4.20
2023-02-17T15:49:28.897Z,4.50
2023-02-17T15:51:56.405Z,4.00
2023-02-17T15:54:26.565Z,4.20
2023-02-17T15:56:54.268Z,4.57
2023-02-17T15:59:26.376Z,4.53
2023-02-17T16:02:01.059Z,4.27
2023-02-17T16:04:29.177Z,4.57
2023-02-17T16:06:56.621Z,4.70
2023-02-17T16:09:24.174Z,4.40
2023-02-17T16:11:53.535Z,4.00
2023-02-17T16:14:25.876Z,4.50
2023-02-17T16:17:02.032Z,4.60
2023-02-17T16:19:30.052Z,4.73
2023-02-17T16:21:57.515Z,4.73
2023-02-17T16:24:25.024Z,4.50
2023-02-17T16:26:52.519Z,4.73
2023-02-17T16:29:23.461Z,5.03
2023-02-17T16:31:51.115Z,4.27
2023-02-17T16:34:23.428Z,4.33
2023-02-17T16:36:51.978Z,4.90
2023-02-17T16:39:20.382Z,4.60
2023-02-17T16:41:48.095Z,5.23
2023-02-17T16:44:16.717Z,4.93
2023-02-17T16:46:51.276Z,5.50
2023-02-17T16:49:26.001Z,5.30
2023-02-17T16:51:53.483Z,5.10
2023-02-17T16:54:21.008Z,5.10
2023-02-17T16:56:50.155Z,5.40
2023-02-17T16:59:18.478Z,5.53
2023-02-17T17:01:46.368Z,4.73
2023-02-17T17:04:15.423Z,5.17
2023-02-17T17:06:44.725Z,5.80
2023-02-17T17:09:19.651Z,5.33
2023-02-17T17:11:47.256Z,5.23
2023-02-17T17:14:14.718Z,5.60
2023-02-17T17:16:43.700Z,5.28
2023-02-17T17:19:15.066Z,4.73
2023-02-17T17:21:42.566Z,5.00
2023-02-17T17:24:10.055Z,5.10
2023-02-17T17:26:39.976Z,5.53
2023-02-17T17:29:08.269Z,5.50
2023-02-17T17:31:36.017Z,6.30
2023-02-17T17:34:03.911Z,6.93
2023-02-17T17:36:33.012Z,5.87
2023-02-17T17:39:01.183Z,6.30
2023-02-17T17:41:29.876Z,6.03
2023-02-17T17:43:58.078Z,5.43
2023-02-17T17:46:28.417Z,5.87
2023-02-17T17:48:59.501Z,5.40
2023-02-17T17:51:27.884Z,5.63
2023-02-17T17:53:55.392Z,5.87
2023-02-17T17:56:25.046Z,5.50
2023-02-17T17:58:53.087Z,6.03
2023-02-17T18:01:21.620Z,5.60
2023-02-17T18:03:49.852Z,5.60
2023-02-17T18:06:20.863Z,6.00
2023-02-17T18:08:49.062Z,5.73
2023-02-17T18:11:17.318Z,5.70
2023-02-17T18:13:45.889Z,6.23
2023-02-17T18:16:13.690Z,7.00
2023-02-17T18:18:41.699Z,8.07
2023-02-17T18:21:09.162Z,7.47
2023-02-17T18:23:36.635Z,6.77
2023-02-17T18:26:04.156Z,6.97
2023-02-17T18:28:31.649Z,8.50
2023-02-17T18:30:59.345Z,7.50
2023-02-17T18:33:27.644Z,7.67
2023-02-17T18:35:55.030Z,7.80
2023-02-17T18:38:22.555Z,6.73
2023-02-17T18:40:53.138Z,7.47
2023-02-17T18:43:20.631Z,7.17
2023-02-17T18:45:50.000Z,6.83
2023-02-17T18:48:17.581Z,7.33
2023-02-17T18:50:45.076Z,7.33
2023-02-17T18:53:12.737Z,6.93
2023-02-17T18:55:40.223Z,8.13
2023-02-17T18:58:07.678Z,7.20
2023-02-17T19:00:35.247Z,7.13
2023-02-17T19:03:02.907Z,6.50
2023-02-17T19:05:30.447Z,6.93
2023-02-17T19:07:58.820Z,7.50
2023-02-17T19:10:26.884Z,8.27
2023-02-17T19:12:54.384Z,7.60
2023-02-17T19:15:21.964Z,8.63
2023-02-17T19:17:51.164Z,8.80
2023-02-17T19:20:18.690Z,7.87
2023-02-17T19:22:46.167Z,7.40
2023-02-17T19:25:13.821Z,6.63
2023-02-17T19:27:41.288Z,7.23
2023-02-17T19:30:09.898Z,7.00
2023-02-17T19:32:37.583Z,7.20
2023-02-17T19:35:05.122Z,7.67
2023-02-17T19:37:32.683Z,7.27
2023-02-17T19:40:00.280Z,7.57
2023-02-17T19:42:28.228Z,7.23
2023-02-17T19:44:57.000Z,7.20
2023-02-17T19:47:24.612Z,6.90
2023-02-17T19:49:52.033Z,7.30
2023-02-17T19:52:19.893Z,7.50
2023-02-17T19:54:49.490Z,7.40
2023-02-17T19:57:18.420Z,7.43
2023-02-17T19:59:46.376Z,7.53
2023-02-17T20:02:14.649Z,7.10
2023-02-17T20:04:42.802Z,7.30
2023-02-17T20:07:10.350Z,7.17
2023-02-17T20:09:37.910Z,6.63
2023-02-17T20:12:05.550Z,7.77
2023-02-17T20:14:33.042Z,6.80
2023-02-17T20:17:00.974Z,7.00
2023-02-17T20:19:28.809Z,7.33
2023-02-17T20:21:56.339Z,7.03
2023-02-17T20:24:23.763Z,6.90
2023-02-17T20:26:53.428Z,7.77
2023-02-17T20:29:20.998Z,8.20
2023-02-17T20:31:48.639Z,8.77
2023-02-17T20:34:27.954Z,8.10
2023-02-17T20:36:56.915Z,7.20
2023-02-17T20:39:25.783Z,8.20
2023-02-17T20:41:53.493Z,8.60
2023-02-17T20:44:20.977Z,8.23
2023-02-17T20:46:49.115Z,7.87
2023-02-17T20:49:16.660Z,7.57
2023-02-17T20:51:44.132Z,9.03
2023-02-17T20:54:11.578Z,7.87
2023-02-17T20:56:40.800Z,8.13
2023-02-17T20:59:09.092Z,7.93
2023-02-17T21:01:37.221Z,8.10
2023-02-17T21:04:04.701Z,8.47
2023-02-17T21:06:33.364Z,8.17
2023-02-17T21:09:02.226Z,7.90
2023-02-17T21:11:29.907Z,8.20
2023-02-17T21:13:57.399Z,8.10
2023-02-17T21:16:27.260Z,8.00
2023-02-17T21:18:55.707Z,7.43
2023-02-17T21:21:23.601Z,7.67
2023-02-17T21:23:51.216Z,7.97
2023-02-17T21:26:18.868Z,7.37
2023-02-17T21:28:46.625Z,8.30
2023-02-17T21:31:15.106Z,8.53
2023-02-17T21:33:43.441Z,7.90
2023-02-17T21:36:11.958Z,7.67
2023-02-17T21:38:39.584Z,7.20
2023-02-17T21:41:08.280Z,8.03
2023-02-17T21:43:54.286Z,7.47
2023-02-17T21:46:22.234Z,7.80
2023-02-17T21:48:51.620Z,7.03
2023-02-17T21:51:20.368Z,7.30
2023-02-17T21:53:47.914Z,7.80
2023-02-17T21:56:15.795Z,7.63
2023-02-17T21:58:46.937Z,7.77
2023-02-17T22:01:14.500Z,7.90
2023-02-17T22:03:41.996Z,7.20
2023-02-17T22:06:35.925Z,7.93
2023-02-17T22:09:04.405Z,8.60
2023-02-17T22:11:32.818Z,7.57
2023-02-17T22:14:01.644Z,7.93
2023-02-17T22:16:44.708Z,7.87
2023-02-17T22:19:19.778Z,7.47
2023-02-17T22:21:48.116Z,7.67
2023-02-17T22:24:15.866Z,7.70
2023-02-17T22:26:43.453Z,7.80
2023-02-17T22:29:10.926Z,8.53
2023-02-17T22:31:38.558Z,7.43
2023-02-17T22:34:07.220Z,8.20
2023-02-17T22:36:35.610Z,7.97
2023-02-17T22:39:03.804Z,8.27
2023-02-17T22:41:31.459Z,7.90
2023-02-17T22:43:58.919Z,7.00
2023-02-17T22:46:27.347Z,7.20
2023-02-17T22:48:55.943Z,6.97
2023-02-17T22:51:28.222Z,6.93
2023-02-17T22:53:56.024Z,7.40
2023-02-17T22:56:24.015Z,4.00
2023-02-17T22:58:55.842Z,5.13
2023-02-17T23:01:23.450Z,6.77
2023-02-17T23:03:54.071Z,6.50
2023-02-17T23:06:26.388Z,6.40
2023-02-17T23:08:53.925Z,6.03
2023-02-17T23:11:42.629Z,5.57
2023-02-17T23:14:10.735Z,3.80
2023-02-17T23:16:38.259Z,5.40
2023-02-17T23:19:06.791Z,5.23
2023-02-17T23:21:34.196Z,5.47
2023-02-17T23:24:01.754Z,5.07
2023-02-17T23:26:29.200Z,5.53
2023-02-17T23:28:56.696Z,5.87
2023-02-17T23:31:24.227Z,4.50
2023-02-17T23:33:51.875Z,4.63
2023-02-17T23:36:19.314Z,4.83
2023-02-17T23:38:46.863Z,4.67
2023-02-17T23:41:14.296Z,4.23
2023-02-17T23:43:41.810Z,4.40
2023-02-17T23:46:09.727Z,4.13
2023-02-17T23:48:37.481Z,4.07
2023-02-17T23:51:06.025Z,4.40
2023-02-17T23:53:34.038Z,4.10
2023-02-17T23:56:13.729Z,3.87
2023-02-17T23:58:41.519Z,4.13
